Station: NURIOOTPA AWS

  Atmospheric Gas Attenuation - ITU Rec 676-11   --------------- db/100km ---------------
Date Time Temp RH % AH g/m3 Dew Point Wind Direction Speed kph Gust kph Barometer mB Rainfall Since 9am 24GHz 47GHz 76GHz 122GHz 134GHz 241GHz
28 14:00 22.8 42 8.53 9.2 6 13 1017.1 0.2 19.0 23.5 35.5 93.0 87.2 300.5
28 13:50 21.7 35 6.68 5.6 6 7 1017.3 0.2 15.2 21.1 29.5 77.1 67.2 230.1
28 13:40 21.6 37 7.02 6.3 15 19 1017.4 0.2 15.9 21.6 30.7 80.3 71.1 243.8
28 13:30 22 40 7.76 7.8 7 20 1017.3 0.2 17.4 22.6 33.1 86.7 79.2 272.0
28 13:20 21.1 40 7.37 7 9 13 1017.6 0.2 16.7 22.3 32.1 84.0 75.6 259.3
28 13:10 21.1 47 8.66 9.4 7 9 1017.7 0.2 19.4 24.1 36.7 96.3 90.7 312.5
28 13:00 19.9 43 7.39 7 6 11 1017.7 0.2 16.8 22.6 32.7 85.5 76.9 264.0
28 12:50 20.2 45 7.87 7.9 7 9 1017.9 0.2 17.7 23.2 34.3 89.7 82.3 282.8
28 12:40 19.4 46 7.67 7.5 9 11 1018.1 0.2 17.4 23.1 33.9 88.7 80.8 277.3
28 12:30 20.4 46 8.14 8.4 6 17 1018.2 0.2 18.3 23.6 35.2 92.1 85.3 293.4
28 12:20 20.1 49 8.52 9.1 0 0 1018.5 0.2 19.1 24.2 36.7 96.2 90.2 310.6
28 12:10 19.7 45 7.64 7.4 4 9 1018.7 0.2 17.3 23.0 33.7 88.2 80.1 275.2
28 12:00 18.8 49 7.89 7.9 7 13 1018.8 0.2 17.8 23.6 35.0 91.6 84.1 288.8
28 11:50 19 49 7.98 8.1 11 15 1019 0.2 18.0 23.7 35.2 92.3 84.9 292.0
28 11:40 19.3 48 7.96 8 7 7 1019.1 0.2 18.0 23.6 35.0 91.7 84.4 290.1
28 11:30 19.4 49 8.17 8.4 7 15 1019.2 0.2 18.4 23.9 35.8 93.7 86.8 298.6
28 11:20 19.4 51 8.51 9 7 9 1019.4 0.2 19.1 24.4 37.0 97.1 91.0 313.2
28 11:10 19 54 8.8 9.5 9 11 1019.5 0.2 19.8 25.0 38.3 100.5 95.0 327.3
28 11:00 18.7 51 8.16 8.4 6 13 1019.5 0.2 18.4 24.1 36.1 94.4 87.5 300.9
28 10:50 18.3 53 8.29 8.6 7 9 1019.7 0.2 18.7 24.4 36.7 96.2 89.6 308.0
28 10:40 17.8 55 8.35 8.6 9 11 1019.8 0.2 18.9 24.6 37.2 97.4 90.9 312.6
28 10:30 17.6 55 8.25 8.5 7 13 1019.7 0.2 18.7 24.5 36.9 96.7 89.9 309.0
28 10:20 17.1 58 8.44 8.8 7 9 1019.8 0.2 19.1 24.9 37.9 99.2 92.8 319.3
28 10:10 17 56 8.1 8.2 7 9 1019.9 0.2 18.4 24.5 36.6 95.9 88.7 304.8
28 10:00 16.7 62 8.81 9.4 11 17 1019.8 0.2 19.9 25.6 39.5 103.5 98.0 337.5
28 09:50 16.9 65 9.35 10.3 9 11 1019.9 0.2 21.0 26.4 41.5 109.0 104.8 361.1
28 09:40 16.8 64 9.15 10 7 13 1020 0 20.6 26.2 40.8 107.0 102.3 352.4
28 09:30 16.5 56 7.86 7.7 4 11 1019.9 0 17.9 24.2 35.9 94.1 86.2 296.2
28 09:20 16.1 59 8.09 8.1 4 6 1020 0 18.4 24.7 37.0 96.9 89.6 307.8
28 09:10 15.8 68 9.15 9.9 6 7 1020 0 20.7 26.4 41.3 108.3 103.6 356.9
28 09:00 15.3 71 9.27 10.1 0 0 1019.9 0 20.9 26.8 42.0 110.3 105.9 364.8
28 08:50 15.3 76 9.92 11.1 0 0 1020 0 22.3 27.9 44.7 117.4 114.6 395.4
28 08:40 14 78 9.41 10.2 0 0 1019.9 0 21.3 27.4 43.3 113.7 109.6 377.5
28 08:30 13.3 78 9.01 9.5 4 7 1019.8 0 20.5 27.0 42.0 110.3 105.1 361.8
28 08:20 12.3 79 8.58 8.8 6 6 1019.9 0 19.6 26.6 40.8 107.0 100.6 346.0
28 08:10 11.6 83 8.63 8.8 6 7 1019.8 0 19.8 26.8 41.3 108.5 102.2 351.4
28 08:00 10.7 83 8.15 7.9 4 7 1019.7 0 18.8 26.3 39.8 104.4 96.8 332.4
28 07:50 10.3 86 8.24 8.1 0 0 1019.8 0 19.0 26.6 40.4 105.9 98.5 338.5
28 07:40 9.2 89 7.95 7.5 4 6 1019.7 0 18.4 26.4 39.7 104.1 95.9 329.2
28 07:30 8.5 91 7.77 7.1 6 7 1019.5 0 18.1 26.3 39.3 103.0 94.3 323.3
28 07:20 7.9 93 7.64 6.8 7 7 1019.4 0 17.8 26.3 39.1 102.3 93.2 319.5
28 07:10 7.3 96 7.59 6.7 4 6 1019.3 0 17.7 26.4 39.1 102.6 93.2 319.5
28 07:00 6.8 98 7.5 6.5 4 6 1019.1 0 17.5 26.4 39.0 102.2 92.6 317.1
28 06:50 6.1 99 7.24 6 4 6 1019.1 0 17.0 26.1 38.2 100.1 89.8 307.1
28 06:40 5.2 98 6.75 4.9 0 0 1019 0 16.0 25.5 36.6 95.7 83.9 286.6
28 06:30 4.7 97 6.47 4.3 0 6 1018.9 0 15.4 25.2 35.6 93.2 80.6 274.8
28 06:20 5 96 6.53 4.4 0 0 1018.9 0 15.5 25.2 35.8 93.5 81.1 276.6
28 06:10 5.2 96 6.61 4.6 0 0 1018.8 0 15.7 25.3 36.0 94.1 82.0 279.7
28 06:00 5 96 6.53 4.4 0 0 1018.5 0 15.5 25.2 35.7 93.4 81.1 276.5
28 05:50 5.2 95 6.55 4.5 0 0 1018.6 0 15.6 25.2 35.7 93.4 81.1 276.8
28 05:40 5.4 96 6.7 4.8 0 0 1018.5 0 15.9 25.4 36.3 94.9 83.0 283.3
28 05:30 5.8 96 6.88 5.2 7 9 1018.3 0 16.3 25.6 36.8 96.4 85.0 290.5
28 05:20 5.8 97 6.95 5.4 7 9 1018.3 0 16.4 25.7 37.1 97.2 86.0 293.9
28 05:10 5.5 95 6.68 4.8 0 0 1018.3 0 15.8 25.3 36.1 94.5 82.6 281.9
28 04:50 6.4 96 7.16 5.8 0 0 1018.1 0 16.8 25.9 37.7 98.7 88.2 301.8
28 04:40 6.2 96 7.06 5.6 0 0 1018.1 0 16.6 25.7 37.4 97.9 87.1 297.7
28 04:30 6.3 96 7.11 5.7 0 0 1018.2 0 16.7 25.8 37.6 98.3 87.7 299.8
28 04:20 6.4 97 7.23 6 0 0 1018.3 0 17.0 26.0 38.0 99.6 89.2 305.3
28 04:10 6 96 6.97 5.4 0 0 1018.3 0 16.4 25.7 37.1 97.1 86.1 294.1
28 04:00 6.2 96 7.06 5.6 0 0 1018.3 0 16.6 25.7 37.4 97.9 87.1 297.8
28 03:50 6.4 96 7.16 5.8 0 0 1018.4 0 16.8 25.9 37.7 98.8 88.2 301.9
28 03:40 6.3 94 6.96 5.4 0 0 1018.4 0 16.4 25.6 36.9 96.7 85.6 292.5
28 03:30 6.5 95 7.13 5.8 0 0 1018.4 0 16.8 25.8 37.6 98.3 87.7 300.0
28 03:20 6.5 95 7.13 5.8 0 0 1018.5 0 16.8 25.8 37.6 98.3 87.7 300.1
28 03:10 6.6 94 7.1 5.7 0 0 1018.6 0 16.7 25.7 37.4 97.9 87.2 298.2
28 03:00 6.8 93 7.12 5.7 0 0 1018.5 0 16.7 25.7 37.4 97.8 87.2 298.4
28 02:50 6.9 92 7.09 5.7 0 0 1018.5 0 16.7 25.6 37.2 97.4 86.7 296.6
28 02:40 7.4 92 7.32 6.2 0 0 1018.5 0 17.1 25.8 37.9 99.3 89.3 305.8
28 02:30 7.7 91 7.38 6.3 0 0 1018.6 0 17.2 25.9 38.0 99.6 89.8 307.5
28 02:20 8 91 7.53 6.6 0 0 1018.8 0 17.6 26.0 38.5 100.9 91.5 313.6
28 02:10 8.1 89 7.41 6.4 2 6 1018.9 0 17.3 25.8 38.0 99.5 89.8 307.4
28 02:00 8.4 88 7.47 6.5 4 7 1018.8 0 17.4 25.8 38.1 99.7 90.2 309.1
28 01:50 9.3 85 7.64 6.9 2 6 1018.9 0 17.7 25.8 38.4 100.5 91.5 313.7
28 01:40 9.3 85 7.64 6.9 7 9 1019 0 17.7 25.8 38.4 100.5 91.5 313.7
28 01:30 9.3 86 7.73 7.1 9 13 1018.9 0 17.9 26.0 38.7 101.5 92.7 318.0
28 01:20 9.4 85 7.69 7 9 11 1019.1 0 17.8 25.9 38.5 100.9 92.1 315.7
28 01:10 9.4 85 7.69 7 7 9 1019.3 0 17.8 25.9 38.5 100.9 92.1 315.8
28 01:00 9.2 87 7.77 7.2 6 7 1019.4 0 18.0 26.1 39.0 102.1 93.4 320.4
28 00:50 9 89 7.85 7.3 0 0 1019.4 0 18.2 26.3 39.4 103.3 94.8 325.1
28 00:40 8.8 88 7.66 6.9 0 0 1019.5 0 17.8 26.0 38.7 101.4 92.4 316.8
28 00:30 9.2 87 7.77 7.2 0 0 1019.4 0 18.0 26.1 39.0 102.1 93.4 320.4
28 00:20 9.5 86 7.83 7.3 0 0 1019.6 0 18.1 26.1 39.1 102.4 93.9 322.1
28 00:10 9.7 86 7.93 7.5 11 13 1019.6 0 18.3 26.2 39.4 103.2 95.0 326.1
28 00:00 9.8 86 7.98 7.6 11 15 1019.5 0 18.4 26.3 39.5 103.6 95.6 328.0
27 23:50 9.4 88 7.96 7.5 11 13 1019.6 0 18.4 26.4 39.7 104.0 95.8 328.8
27 23:40 9.4 88 7.96 7.5 0 6 1019.7 0 18.4 26.4 39.7 104.0 95.8 328.8
27 23:30 9.7 88 8.11 7.8 0 0 1019.7 0 18.7 26.5 40.2 105.3 97.5 334.8
27 23:20 9.8 88 8.17 7.9 0 0 1019.8 0 18.9 26.6 40.4 105.8 98.2 337.3
27 23:10 10.1 88 8.32 8.2 0 0 1019.9 0 19.2 26.8 40.8 107.1 99.9 343.2
27 23:00 10.4 88 8.48 8.5 0 0 1019.7 0 19.5 27.0 41.3 108.4 101.7 349.6
27 22:50 10.3 89 8.53 8.6 0 0 1019.8 0 19.6 27.1 41.6 109.2 102.6 352.5
27 22:40 10.3 89 8.53 8.6 7 9 1019.8 0 19.6 27.1 41.6 109.2 102.6 352.5
27 22:30 10.1 91 8.61 8.7 4 9 1019.7 0 19.8 27.3 42.1 110.3 103.9 357.3
27 22:20 10.1 90 8.51 8.5 0 0 1019.9 0 19.6 27.1 41.6 109.2 102.6 352.4
27 22:10 10.1 90 8.51 8.5 0 0 1019.8 0 19.6 27.1 41.6 109.2 102.5 352.4
27 22:00 10.2 87 8.28 8.1 0 0 1019.7 0 19.1 26.7 40.6 106.5 99.2 340.8
27 21:50 10.7 87 8.55 8.6 0 0 1019.8 0 19.6 27.0 41.5 108.8 102.3 351.6
27 21:40 10.6 87 8.49 8.5 2 6 1019.7 0 19.5 26.9 41.3 108.3 101.6 349.2
27 21:30 10.6 86 8.4 8.4 0 0 1019.5 0 19.3 26.8 40.9 107.2 100.3 344.8
27 21:20 11.3 84 8.57 8.7 0 0 1019.5 0 19.6 26.8 41.2 108.2 101.8 349.8

Last Refresh: 28-Oct-2020 14:13:01

Most of the information presented on this site is sourced from the Bureau of Meteorology.  Copyright in all material sourced from the Bureau of Meteorology resides with the Commonwealth of Australia.